Latest Coastal Weather Observations for Frankston (Ballam Park)

IDV60701

Issued at 2:32 pm EST Saturday 25 May 2024 (issued every 10 minutes, with the page automatically refreshed every 10 minutes)

About coastal observations | Map of coastal stations | Coastal observations for VIC | Marine services | Other Formats
Station Details ID: 086388 Name: FRANKSTON (BALLAM PARK) Lat: -38.15 Lon: 145.16 Height: 58.47 m
Data from the previous 72 hours. | See also: Recent months at Frankston (Ballam Park)
Date/Time
EST
Wind Sea
Height
m
Swell Vis
km
Cloud Weather Temp
°C
Press
MSL
hPa
Rain since
9am
mm
Dir  Spd
kts
Gust
kts
Height
m
Period
s
Dir
25/02:30pm WNW 2 4 - - - - - - - 15.2 1026.0 0.0
25/02:00pm W 2 4 - - - - - - - 14.7 1026.1 0.0
25/01:30pm WSW 1 4 - - - - - - - 14.3 1026.2 0.0
25/01:00pm WNW 1 4 - - - - - - - 14.0 1026.6 0.0
25/12:30pm WNW 2 4 - - - - - - - 14.2 1027.2 0.0
25/12:00pm NNW 2 5 - - - - - - - 12.9 1027.7 0.0
25/11:30am N 3 4 - - - - - - - 12.2 1028.1 0.0
25/11:00am N 4 6 - - - - - - - 12.3 1028.4 0.0
25/10:30am N 2 4 - - - - - - - 12.6 1028.4 0.0
25/10:00am CALM 0 0 - - - - - - - 12.2 1028.3 0.0
25/09:30am CALM 0 0 - - - - - - - 10.9 1028.2 0.0
25/09:00am CALM 0 0 - - - - - - - 10.0 1028.2 0.0
25/08:30am CALM 0 0 - - - - - - - 9.4 1028.2 0.0
25/08:00am CALM 0 0 - - - - - - - 9.2 1027.9 0.0
25/07:30am CALM 0 0 - - - - - - - 9.2 1027.8 0.0
25/07:00am CALM 0 1 - - - - - - - 9.2 1027.5 0.0
25/06:30am NNE 2 3 - - - - - - - 9.2 1027.3 0.0
25/06:00am CALM 0 2 - - - - - - - 9.6 1027.0 0.0
25/05:30am ENE 2 3 - - - - - - - 9.8 1027.0 0.0
25/05:00am ESE 1 2 - - - - - - - 9.5 1026.8 0.0
25/04:30am E 1 2 - - - - - - - 8.9 1026.7 0.0
25/04:00am SE 2 3 - - - - - - - 8.9 1026.7 0.0
25/03:30am CALM 0 1 - - - - - - - 8.8 1027.0 0.0
25/03:00am E 1 2 - - - - - - - 9.4 1027.2 0.0
25/02:30am SE 2 3 - - - - - - - 10.2 1027.2 0.0
25/02:00am SSE 2 4 - - - - - - - 10.2 1027.0 0.0
25/01:30am SSE 3 4 - - - - - - - 10.4 1026.8 0.0
25/01:00am SSE 3 3 - - - - - - - 10.7 1027.0 0.0
25/12:30am SSE 2 4 - - - - - - - 10.7 1027.4 0.0
25/12:00am SSE 2 3 - - - - - - - 10.7 1027.6 0.0
 
Date/Time
EST
Wind Sea
Height
m
Swell Vis
km
Cloud Weather Temp
°C
Press
MSL
hPa
Rain since
9am
mm
Dir  Spd
kts
Gust
kts
Height
m
Period
s
Dir
24/11:30pm SSE 2 3 - - - - - - - 10.8 1027.7 0.0
24/11:00pm SSE 2 4 - - - - - - - 11.1 1027.8 0.0
24/10:30pm CALM 0 2 - - - - - - - 10.5 1028.0 0.0
24/10:00pm CALM 0 0 - - - - - - - 10.8 1028.1 0.0
24/09:30pm CALM 0 0 - - - - - - - 10.7 1028.1 0.0
24/09:00pm CALM 0 0 - - - - - - - 11.1 1028.0 0.0
24/08:30pm CALM 0 0 - - - - - - - 11.0 1028.1 0.0
24/08:00pm CALM 0 0 - - - - - - - 10.6 1028.1 0.0
24/07:30pm SSE 2 3 - - - - - - - 11.4 1027.8 0.0
24/07:00pm SSE 3 4 - - - - - - - 11.8 1027.7 0.0
24/06:30pm S 3 4 - - - - - - - 11.9 1027.5 0.0
24/06:00pm SE 1 3 - - - - - - - 12.5 1027.3 0.0
24/05:30pm CALM 0 0 - - - - - - - 12.6 1027.2 0.0
24/05:00pm S 3 5 - - - - - - - 13.2 1027.3 0.0
24/04:30pm SSW 3 6 - - - - - - - 13.6 1027.2 0.0
24/04:00pm SSW 1 4 - - - - - - - 14.2 1027.1 0.0
24/03:30pm SW 1 5 - - - - - - - 14.4 1027.0 0.0
24/03:00pm W 2 4 - - - - - - - 14.4 1026.9 0.0
24/02:30pm NW 3 5 - - - - - - - 14.5 1027.1 0.0
24/02:00pm WNW 3 5 - - - - - - - 14.1 1027.5 0.0
24/01:30pm WNW 4 6 - - - - - - - 13.4 1027.6 0.0
24/01:00pm WNW 3 5 - - - - - - - 13.1 1027.7 0.0
24/12:30pm NW 3 5 - - - - - - - 13.1 1028.0 0.0
24/12:00pm WNW 2 4 - - - - - - - 13.0 1028.2 0.0
24/11:30am NW 3 5 - - - - - - - 12.1 1028.5 0.0
24/11:00am NNW 4 7 - - - - - - - 11.3 1028.9 0.0
24/10:30am NNW 3 5 - - - - - - - 11.0 1028.7 0.0
24/10:00am NW 3 5 - - - - - - - 11.1 1028.5 0.0
24/09:30am NNW 3 4 - - - - - - - 10.4 1028.6 0.0
24/09:00am NW 2 3 - - - - - - - 9.3 1028.7 0.0
24/08:30am N 1 3 - - - - - - - 8.4 1028.7 0.0
24/08:00am CALM 0 0 - - - - - - - 7.8 1028.5 0.0
24/07:30am CALM 0 0 - - - - - - - 7.0 1028.1 0.0
24/07:00am NNW 1 3 - - - - - - - 7.0 1027.7 0.0
24/06:30am CALM 0 0 - - - - - - - 6.7 1027.7 0.0
24/06:00am CALM 0 0 - - - - - - - 6.5 1027.7 0.0
24/05:30am CALM 0 0 - - - - - - - 6.7 1027.6 0.0
24/05:00am CALM 0 0 - - - - - - - 7.4 1027.4 0.0
24/04:30am CALM 0 0 - - - - - - - 7.1 1027.3 0.0
24/04:00am CALM 0 0 - - - - - - - 7.6 1027.3 0.0
24/03:30am CALM 0 0 - - - - - - - 8.2 1027.4 0.0
24/03:00am CALM 0 0 - - - - - - - 7.8 1027.9 0.0
24/02:30am CALM 0 0 - - - - - - - 7.4 1028.0 0.0
24/02:00am CALM 0 0 - - - - - - - 6.7 1027.8 0.0
24/01:30am CALM 0 0 - - - - - - - 6.5 1027.7 0.0
24/01:00am CALM 0 0 - - - - - - - 6.6 1027.9 0.0
24/12:30am CALM 0 0 - - - - - - - 7.0 1028.1 0.0
24/12:00am CALM 0 0 - - - - - - - 6.8 1028.2 0.0
 
Date/Time
EST
Wind Sea
Height
m
Swell Vis
km
Cloud Weather Temp
°C
Press
MSL
hPa
Rain since
9am
mm
Dir  Spd
kts
Gust
kts
Height
m
Period
s
Dir
23/11:30pm CALM 0 0 - - - - - - - 6.9 1028.1 0.0
23/11:00pm CALM 0 0 - - - - - - - 7.3 1028.1 0.0
23/10:30pm CALM 0 0 - - - - - - - 7.4 1027.9 0.0
23/10:00pm CALM 0 0 - - - - - - - 7.5 1027.7 0.0
23/09:30pm CALM 0 0 - - - - - - - 7.9 1027.8 0.0
23/09:00pm CALM 0 0 - - - - - - - 8.1 1027.7 0.0
23/08:30pm CALM 0 0 - - - - - - - 8.6 1027.8 0.0
23/08:00pm CALM 0 0 - - - - - - - 8.7 1027.9 0.0
23/07:30pm CALM 0 0 - - - - - - - 9.2 1027.8 0.0
23/07:00pm CALM 0 0 - - - - - - - 9.5 1027.7 0.0
23/06:30pm CALM 0 0 - - - - - - - 10.0 1027.5 0.0
23/06:00pm CALM 0 0 - - - - - - - 10.0 1027.5 0.0
23/05:30pm CALM 0 0 - - - - - - - 10.8 1027.3 0.0
23/05:00pm CALM 0 0 - - - - - - - 12.8 1027.2 0.0
23/04:30pm CALM 0 2 - - - - - - - 14.1 1027.3 0.0
23/04:00pm WSW 1 5 - - - - - - - 14.8 1027.0 0.0
23/03:30pm WSW 2 5 - - - - - - - 14.9 1027.0 0.0
23/03:00pm WNW 3 5 - - - - - - - 14.8 1027.2 0.0
23/02:30pm WNW 3 6 - - - - - - - 13.8 1027.2 0.0
23/02:00pm NW 3 6 - - - - - - - 14.2 1027.2 0.0
23/01:30pm WNW 3 5 - - - - - - - 13.8 1027.5 0.0
23/01:00pm NNW 3 5 - - - - - - - 13.3 1027.7 0.0
23/12:30pm NW 4 6 - - - - - - - 13.7 1028.1 0.0
23/12:00pm NW 4 6 - - - - - - - 13.2 1028.4 0.0
23/11:30am NNW 4 7 - - - - - - - 13.2 1028.8 0.0
23/11:00am NW 4 7 - - - - - - - 12.8 1028.9 0.0
23/10:30am NW 3 5 - - - - - - - 13.1 1028.8 0.0
23/10:00am NW 4 6 - - - - - - - 13.0 1028.6 0.0
23/09:30am NNW 1 2 - - - - - - - 13.0 1028.5 0.0
23/09:00am CALM 0 0 - - - - - - - 11.4 1028.7 0.2
23/08:30am CALM 0 0 - - - - - - - 10.2 1028.5 0.2
23/08:00am CALM 0 0 - - - - - - - 9.7 1028.4 0.2
23/07:30am CALM 0 0 - - - - - - - 9.8 1028.0 0.2
23/07:00am CALM 0 0 - - - - - - - 9.6 1027.6 0.2
23/06:30am CALM 0 0 - - - - - - - 9.4 1027.5 0.2
23/06:00am CALM 0 0 - - - - - - Recent precip. 10.0 1027.4 0.2
23/05:30am CALM 0 0 - - - - - - - 10.1 1027.2 0.0
23/05:00am CALM 0 0 - - - - - - - 10.3 1027.2 0.0
23/04:30am CALM 0 0 - - - - - - - 10.2 1027.1 0.0
23/04:00am CALM 0 0 - - - - - - - 10.2 1026.9 0.0
23/03:30am CALM 0 0 - - - - - - - 10.3 1027.1 0.0
23/03:00am CALM 0 0 - - - - - - - 10.5 1027.1 0.0
23/02:30am CALM 0 0 - - - - - - - 11.0 1027.1 0.0
23/02:00am CALM 0 0 - - - - - - - 11.5 1027.0 0.0
23/01:30am CALM 0 0 - - - - - - - 11.5 1027.0 0.0
23/01:00am CALM 0 3 - - - - - - - 11.4 1027.0 0.0
23/12:30am CALM 0 0 - - - - - - - 11.6 1027.0 0.0
23/12:00am CALM 0 1 - - - - - - - 11.6 1027.1 0.0
 
Date/Time
EST
Wind Sea
Height
m
Swell Vis
km
Cloud Weather Temp
°C
Press
MSL
hPa
Rain since
9am
mm
Dir  Spd
kts
Gust
kts
Height
m
Period
s
Dir
22/11:30pm CALM 0 0 - - - - - - - 11.5 1026.9 0.0
22/11:00pm CALM 0 0 - - - - - - - 11.5 1026.9 0.0
22/10:30pm CALM 0 0 - - - - - - - 11.6 1027.1 0.0
22/10:00pm CALM 0 0 - - - - - - - 11.7 1027.2 0.0
22/09:30pm CALM 0 0 - - - - - - - 11.9 1027.2 0.0
22/09:00pm CALM 0 0 - - - - - - - 12.0 1027.4 0.0
22/08:30pm NW 1 2 - - - - - - - 12.2 1027.2 0.0
22/08:00pm W 1 3 - - - - - - - 12.4 1027.4 0.0
22/07:30pm CALM 0 0 - - - - - - - 11.5 1027.2 0.0
22/07:00pm CALM 0 1 - - - - - - - 11.5 1027.2 0.0
22/06:30pm CALM 0 0 - - - - - - - 11.3 1027.0 0.0
22/06:00pm CALM 0 0 - - - - - - - 11.5 1026.9 0.0
22/05:30pm CALM 0 0 - - - - - - - 11.4 1026.8 0.0
22/05:00pm CALM 0 1 - - - - - - - 12.6 1026.5 0.0
22/04:30pm WNW 1 2 - - - - - - - 13.5 1026.4 0.0
22/04:00pm NW 2 4 - - - - - - - 13.8 1026.4 0.0
22/03:30pm WNW 3 4 - - - - - - - 14.9 1026.3 0.0
22/03:00pm NW 2 4 - - - - - - - 14.5 1026.4 0.0

Other formats

Comma delimited format used in spreadsheet applications
http://www.bom.gov.au/fwo/IDV60701/IDV60701.94876.axf

JavaScript Object Notation format (JSON) in row-major order
http://www.bom.gov.au/fwo/IDV60701/IDV60701.94876.json

Data quality

Most of these data are generated automatically and are frequently updated. Quality checks on data are not normally performed. It is possible for incorrect values to appear. Refer to information at About Latest Weather Observations and please check the disclaimer before using these data.